Main page
METAR-TAF:

METAR-TAF

Airports :

Urmia Airport

Urmia, Iran

latitude: 37-32N, longitude: 045-05E, elevation: 1297 m

Current weather observation

The report was made 39 minutes ago, at 02:30 UTC
Wind 6 kt from the North/Northwest
Temperature 4°C
Humidity 70%
Pressure 1023 hPa
Visibility 10 km or more
Few clouds at a height of 4000 ft

METAR: OITR 260230Z 33006KT 9999 FEW040 04/M01 Q1023

Time: 07:39 (03:09 UTC)

Forecast

The report was made 4 hours and 9 minutes ago, at 23:00 UTC
Forecast valid from 26 at 00 UTC to 27 at 06 UTC
Wind 6 kt from the West
Visibility: 7000 m
Scattered clouds at a height of 4000 ft

TAF: OITR 252300Z 2600/2706 28006KT 7000 SCT040

Weather observations and forecasts of more than 4000 airports (METAR and TAF reports).

The available stations are represented by yellow and red dots on the map.

Hover mouse over dot to see the name of the station.

Then click to see weather observations and forecasts.

To change the map : click on the green buttons with a black cross to zoom in, on the green button with a dash to zoom out, or on the green arrows for adjacent maps.


METAR-TAF: